createdAt,value
2019-04-13T00:07:27.259Z,56.40
2019-04-13T00:15:44.025Z,55.40
2019-04-13T00:18:26.852Z,55.50
2019-04-13T00:26:35.763Z,55.30
2019-04-13T00:34:45.264Z,55.80
2019-04-13T00:42:55.329Z,55.50
2019-04-13T00:48:19.663Z,55.70
2019-04-13T00:56:26.678Z,57.10
2019-04-13T01:01:53.743Z,58.00
2019-04-13T01:07:19.513Z,59.00
2019-04-13T01:10:02.574Z,59.10
2019-04-13T01:12:47.060Z,59.30
2019-04-13T01:18:16.002Z,59.70
2019-04-13T01:20:58.897Z,59.80
2019-04-13T01:23:44.021Z,59.70
2019-04-13T01:26:27.689Z,60.30
2019-04-13T01:29:09.674Z,60.70
2019-04-13T01:31:52.670Z,60.70
2019-04-13T01:34:34.735Z,60.30
2019-04-13T01:37:20.337Z,60.50
2019-04-13T01:40:03.454Z,60.30
2019-04-13T01:42:46.113Z,61.00
2019-04-13T01:45:29.664Z,61.70
2019-04-13T01:48:13.565Z,60.70
2019-04-13T01:53:55.037Z,61.20
2019-04-13T01:56:43.238Z,61.80
2019-04-13T01:59:24.424Z,62.60
2019-04-13T02:05:18.438Z,63.00
2019-04-13T02:10:44.436Z,63.60
2019-04-13T02:13:30.512Z,63.80
2019-04-13T02:16:12.756Z,64.10
2019-04-13T02:18:55.664Z,63.80
2019-04-13T02:21:37.909Z,63.70
2019-04-13T02:24:20.580Z,63.80
2019-04-13T02:27:03.123Z,63.60
2019-04-13T02:29:46.739Z,63.50
2019-04-13T02:35:10.017Z,63.60
2019-04-13T02:45:58.085Z,63.40
2019-04-13T02:59:35.460Z,63.40
2019-04-13T03:02:20.149Z,63.20
2019-04-13T03:07:47.229Z,63.60
2019-04-13T03:13:10.496Z,64.10
2019-04-13T03:24:05.258Z,61.00
2019-04-13T03:34:55.899Z,58.10
2019-04-13T03:59:15.053Z,57.30
2019-04-13T04:10:08.065Z,57.90
2019-04-13T04:15:22.144Z,56.60
2019-04-13T04:18:04.418Z,57.10
2019-04-13T04:20:46.952Z,56.80
2019-04-13T04:23:30.517Z,57.00
2019-04-13T04:26:16.140Z,57.00
2019-04-13T04:37:10.132Z,57.10
2019-04-13T04:45:22.029Z,57.10
2019-04-13T05:23:14.889Z,57.40
2019-04-13T05:25:57.612Z,57.40
2019-04-13T05:31:24.015Z,57.40
2019-04-13T05:42:19.121Z,57.90
2019-04-13T05:47:30.442Z,57.80
2019-04-13T05:52:42.861Z,57.30
2019-04-13T05:55:26.067Z,57.20
2019-04-13T06:00:55.334Z,57.60
2019-04-13T06:30:51.241Z,57.30
2019-04-13T06:36:41.602Z,57.20
2019-04-13T06:39:27.700Z,57.40
2019-04-13T06:42:10.572Z,57.30
2019-04-13T06:47:21.838Z,57.20
2019-04-13T06:52:35.798Z,57.50
2019-04-13T06:55:03.411Z,58.10
2019-04-13T06:57:52.785Z,57.60
2019-04-13T07:00:36.484Z,57.60
2019-04-13T07:03:06.045Z,57.10
2019-04-13T07:05:57.588Z,57.00
2019-04-13T07:08:41.188Z,57.00
2019-04-13T07:11:29.906Z,57.20
2019-04-13T07:19:23.163Z,56.50
2019-04-13T07:21:53.507Z,56.60
2019-04-13T07:24:36.876Z,56.80
2019-04-13T07:27:06.325Z,57.20
2019-04-13T07:29:35.899Z,57.60
2019-04-13T07:32:05.428Z,56.80
2019-04-13T07:34:50.360Z,56.50
2019-04-13T07:40:05.471Z,56.70
2019-04-13T07:42:39.424Z,56.90
2019-04-13T07:45:25.550Z,57.20
2019-04-13T07:48:06.560Z,56.70
2019-04-13T07:53:21.864Z,56.40
2019-04-13T07:58:40.057Z,56.80
2019-04-13T08:01:10.271Z,56.70
2019-04-13T08:03:55.598Z,56.60
2019-04-13T08:06:11.029Z,56.50
2019-04-13T08:08:45.776Z,56.70
2019-04-13T08:11:11.768Z,56.00
2019-04-13T08:16:48.615Z,56.10
2019-04-13T08:22:01.916Z,56.00
2019-04-13T08:24:52.118Z,55.70
2019-04-13T08:27:33.728Z,56.00
2019-04-13T08:30:03.343Z,56.10
2019-04-13T08:32:35.430Z,56.90
2019-04-13T08:35:19.482Z,56.30
2019-04-13T08:40:46.559Z,55.90
2019-04-13T08:46:10.663Z,56.40
2019-04-13T08:51:22.564Z,56.00
2019-04-13T08:53:52.631Z,55.90
2019-04-13T08:56:22.191Z,55.60
2019-04-13T08:59:11.957Z,55.30
2019-04-13T09:01:41.668Z,55.10
2019-04-13T09:04:11.297Z,54.70
2019-04-13T09:06:40.839Z,54.20
2019-04-13T09:09:30.157Z,54.10
2019-04-13T09:12:20.384Z,54.20
2019-04-13T09:14:53.965Z,54.40
2019-04-13T09:17:22.890Z,53.70
2019-04-13T09:20:11.901Z,54.10
2019-04-13T09:22:41.968Z,54.90
2019-04-13T09:25:11.470Z,54.30
2019-04-13T09:28:00.957Z,53.60
2019-04-13T09:33:21.257Z,53.70
2019-04-13T09:35:50.708Z,53.50
2019-04-13T09:38:20.322Z,53.20
2019-04-13T09:43:57.656Z,52.70
2019-04-13T09:49:13.650Z,53.40
2019-04-13T09:51:47.123Z,53.20
2019-04-13T09:54:35.871Z,53.00
2019-04-13T09:57:18.994Z,53.40
2019-04-13T09:59:48.885Z,53.00
2019-04-13T10:02:18.411Z,52.10
2019-04-13T10:04:49.468Z,51.90
2019-04-13T10:07:19.231Z,51.40
2019-04-13T10:09:48.884Z,51.80
2019-04-13T10:12:28.946Z,51.60
2019-04-13T10:20:42.254Z,49.60
2019-04-13T10:23:12.031Z,49.50
2019-04-13T10:25:41.740Z,48.80
2019-04-13T10:28:11.347Z,49.20
2019-04-13T10:30:40.865Z,49.30
2019-04-13T10:33:10.359Z,48.90
2019-04-13T10:35:40.316Z,49.50
2019-04-13T10:38:31.617Z,48.20
2019-04-13T10:41:20.961Z,47.30
2019-04-13T10:43:50.466Z,46.90
2019-04-13T10:46:39.645Z,47.20
2019-04-13T10:49:28.511Z,47.00
2019-04-13T10:52:01.064Z,45.50
2019-04-13T10:54:43.353Z,45.00
2019-04-13T10:57:13.000Z,44.90
2019-04-13T11:05:30.029Z,44.70
2019-04-13T11:08:20.206Z,44.50
2019-04-13T11:10:51.310Z,44.80
2019-04-13T11:13:23.029Z,45.30
2019-04-13T11:21:17.281Z,44.50
2019-04-13T11:23:49.550Z,45.10
2019-04-13T11:26:19.120Z,45.70
2019-04-13T11:28:48.736Z,46.20
2019-04-13T11:31:22.729Z,44.70
2019-04-13T11:33:49.448Z,45.30
2019-04-13T11:36:19.119Z,46.60
2019-04-13T11:39:08.696Z,47.80
2019-04-13T11:42:09.667Z,47.20
2019-04-13T11:44:48.299Z,46.50
2019-04-13T11:47:37.435Z,47.00
2019-04-13T11:50:12.518Z,47.00
2019-04-13T11:52:42.355Z,47.50
2019-04-13T11:55:12.504Z,46.80
2019-04-13T11:57:42.034Z,46.50
2019-04-13T12:00:31.329Z,46.10
2019-04-13T12:03:06.785Z,46.70
2019-04-13T12:05:41.238Z,46.40
2019-04-13T12:08:16.494Z,45.40
2019-04-13T12:11:08.224Z,45.90
2019-04-13T12:13:51.802Z,45.80
2019-04-13T12:16:41.697Z,45.50
2019-04-13T12:19:31.486Z,44.50
2019-04-13T12:22:08.553Z,46.30
2019-04-13T12:24:38.520Z,44.50
2019-04-13T12:27:08.397Z,44.80
2019-04-13T12:29:58.290Z,45.40
2019-04-13T12:32:30.248Z,44.40
2019-04-13T12:34:59.770Z,46.60
2019-04-13T12:37:29.264Z,45.60
2019-04-13T12:40:03.946Z,44.80
2019-04-13T12:42:34.417Z,43.20
2019-04-13T12:45:04.847Z,43.40
2019-04-13T12:52:59.780Z,46.30
2019-04-13T12:55:49.518Z,45.90
2019-04-13T12:58:22.752Z,45.10
2019-04-13T13:01:06.383Z,44.30
2019-04-13T13:03:36.745Z,44.20
2019-04-13T13:06:07.647Z,44.80
2019-04-13T13:08:49.075Z,44.70
2019-04-13T13:11:38.431Z,45.40
2019-04-13T13:14:08.883Z,45.50
2019-04-13T13:16:40.978Z,45.70
2019-04-13T13:19:15.930Z,45.50
2019-04-13T13:22:04.598Z,45.50
2019-04-13T13:24:36.277Z,45.70
2019-04-13T13:27:06.834Z,46.40
2019-04-13T13:29:41.537Z,46.90
2019-04-13T13:32:11.467Z,47.20
2019-04-13T13:34:41.117Z,47.10
2019-04-13T13:37:11.145Z,46.60
2019-04-13T13:39:44.798Z,47.30
2019-04-13T13:42:12.603Z,46.80
2019-04-13T13:45:01.328Z,47.30
2019-04-13T13:47:30.868Z,47.70
2019-04-13T13:50:00.496Z,47.50
2019-04-13T13:52:30.012Z,47.70
2019-04-13T13:54:59.557Z,47.80
2019-04-13T13:57:29.345Z,48.30
2019-04-13T13:59:58.891Z,48.50
2019-04-13T14:02:31.249Z,48.60
2019-04-13T14:05:01.404Z,49.30
2019-04-13T14:07:32.889Z,49.60
2019-04-13T14:12:45.678Z,50.00
2019-04-13T14:17:56.632Z,49.40
2019-04-13T14:23:11.714Z,50.00
2019-04-13T14:25:41.394Z,49.80
2019-04-13T14:28:11.101Z,50.20
2019-04-13T14:33:32.577Z,50.50
2019-04-13T14:38:52.545Z,50.80
2019-04-13T14:41:22.562Z,51.10
2019-04-13T14:43:53.047Z,51.40
2019-04-13T14:46:23.053Z,51.00
2019-04-13T14:48:55.855Z,51.50
2019-04-13T14:51:44.605Z,51.40
2019-04-13T14:54:16.889Z,51.40
2019-04-13T14:56:47.012Z,52.00
2019-04-13T14:59:18.457Z,52.80
2019-04-13T15:01:48.666Z,53.60
2019-04-13T15:04:18.527Z,54.30
2019-04-13T15:06:52.248Z,54.00
2019-04-13T15:09:21.856Z,53.40
2019-04-13T15:12:11.911Z,52.70
2019-04-13T15:14:41.640Z,53.80
2019-04-13T15:17:11.130Z,52.70
2019-04-13T15:19:52.770Z,52.60
2019-04-13T15:22:15.174Z,51.90
2019-04-13T15:25:05.340Z,51.30
2019-04-13T15:27:34.250Z,51.40
2019-04-13T15:32:54.457Z,51.70
2019-04-13T15:35:46.305Z,52.20
2019-04-13T15:38:30.017Z,52.70
2019-04-13T15:43:45.011Z,53.80
2019-04-13T15:46:17.195Z,53.50
2019-04-13T15:48:47.511Z,53.20
2019-04-13T15:51:18.077Z,53.40
2019-04-13T15:53:49.470Z,53.30
2019-04-13T15:56:19.840Z,53.50
2019-04-13T15:58:51.186Z,53.10
2019-04-13T16:01:21.594Z,53.40
2019-04-13T16:06:58.686Z,53.70
2019-04-13T16:12:27.594Z,53.40
2019-04-13T16:15:10.039Z,53.90
2019-04-13T16:20:25.207Z,53.50
2019-04-13T16:22:55.785Z,53.90
2019-04-13T16:25:27.302Z,53.90
2019-04-13T16:28:18.429Z,54.00
2019-04-13T16:36:44.053Z,55.60
2019-04-13T16:45:11.676Z,56.60
2019-04-13T16:50:44.648Z,55.90
2019-04-13T16:56:50.072Z,56.20
2019-04-13T17:02:24.174Z,56.50
2019-04-13T17:04:58.811Z,56.40
2019-04-13T17:07:29.708Z,56.20
2019-04-13T17:10:00.014Z,55.80
2019-04-13T17:12:35.561Z,56.50
2019-04-13T17:15:02.207Z,56.30
2019-04-13T17:17:32.310Z,56.50
2019-04-13T17:20:22.681Z,56.20
2019-04-13T17:23:12.902Z,56.50
2019-04-13T17:26:04.559Z,56.70
2019-04-13T17:29:14.116Z,56.70
2019-04-13T17:32:02.765Z,57.10
2019-04-13T17:34:52.668Z,57.30
2019-04-13T17:37:23.345Z,57.60
2019-04-13T17:40:13.449Z,58.40
2019-04-13T17:43:03.999Z,58.70
2019-04-13T17:45:52.711Z,57.20
2019-04-13T17:51:23.703Z,56.50
2019-04-13T17:54:12.644Z,57.50
2019-04-13T17:56:42.769Z,57.90
2019-04-13T17:59:50.835Z,58.40
2019-04-13T18:05:23.322Z,58.90
2019-04-13T18:08:41.497Z,58.40
2019-04-13T18:14:19.470Z,56.80
2019-04-13T18:20:07.185Z,56.10
2019-04-13T18:22:50.736Z,54.70
2019-04-13T18:25:32.550Z,54.80
2019-04-13T18:27:52.517Z,54.50
2019-04-13T18:33:16.754Z,54.10
2019-04-13T18:35:47.731Z,55.00
2019-04-13T18:38:31.115Z,56.10
2019-04-13T18:43:58.522Z,56.40
2019-04-13T18:49:12.390Z,56.50
2019-04-13T18:51:44.169Z,56.60
2019-04-13T18:57:15.503Z,57.20
2019-04-13T19:00:07.147Z,57.50
2019-04-13T19:02:52.036Z,57.30
2019-04-13T19:08:16.213Z,57.50
2019-04-13T19:13:27.964Z,58.50
2019-04-13T19:15:57.611Z,58.70
2019-04-13T19:18:27.118Z,58.40
2019-04-13T19:21:15.771Z,58.00
2019-04-13T19:24:00.384Z,57.80
2019-04-13T19:26:29.894Z,58.00
2019-04-13T19:29:19.660Z,57.70
2019-04-13T19:32:03.303Z,57.50
2019-04-13T19:34:33.027Z,57.70
2019-04-13T19:43:43.677Z,58.70
2019-04-13T19:59:46.700Z,58.00
2019-04-13T20:19:35.736Z,58.10
2019-04-13T20:22:25.792Z,58.50
2019-04-13T20:25:11.439Z,59.20
2019-04-13T20:34:24.868Z,62.10
2019-04-13T20:39:57.072Z,61.80
2019-04-13T20:42:41.718Z,61.90
2019-04-13T20:48:11.833Z,62.80
2019-04-13T20:50:43.469Z,63.50
2019-04-13T20:56:09.682Z,62.80
2019-04-13T20:58:40.564Z,62.70
2019-04-13T21:01:30.564Z,62.60
2019-04-13T21:06:57.023Z,62.50
2019-04-13T21:23:17.401Z,63.00
2019-04-13T21:28:42.963Z,64.10
2019-04-13T21:45:04.516Z,65.40
2019-04-13T21:48:24.102Z,65.10
2019-04-13T21:50:43.403Z,64.60
2019-04-13T22:02:09.133Z,62.80
2019-04-13T22:15:30.990Z,62.80
2019-04-13T22:18:14.697Z,63.20
2019-04-13T22:23:38.987Z,64.00
2019-04-13T22:34:35.746Z,63.60
2019-04-13T22:42:53.056Z,63.60
2019-04-13T22:55:03.671Z,64.20
2019-04-13T22:57:39.129Z,64.70
2019-04-13T23:03:30.955Z,65.10
2019-04-13T23:11:23.446Z,65.60
2019-04-13T23:19:37.796Z,66.10
2019-04-13T23:27:56.996Z,66.30
2019-04-13T23:33:23.540Z,66.60
2019-04-13T23:50:08.956Z,67.00
2019-04-13T23:58:17.129Z,67.20
